This is the latest recevied weather packets stored in our database for station/object OK1PHM-12. If no packets are shown the sender has not sent any weather packets the latest 10 day(s).
| Time | Temp. | Humidity | Pressure | Rain* | Wind** | Luminosity | Snow |
|---|---|---|---|---|---|---|---|
| 1778192092 | 11.67° C | 86% | 1017.6 hPa | - | - | - | - |
| 1778191191 | 12.22° C | 86% | 1017.4 hPa | - | - | - | - |
| 1778190290 | 12.78° C | 84% | 1017.3 hPa | - | - | - | - |
| 1778189390 | 13.33° C | 83% | 1017.2 hPa | - | - | - | - |
| 1778188489 | 13.33° C | 81% | 1017.1 hPa | - | - | - | - |
| 1778187588 | 13.89° C | 80% | 1017.1 hPa | - | - | - | - |
| 1778186687 | 13.89° C | 79% | 1017 hPa | - | - | - | - |
| 1778185786 | 13.89° C | 78% | 1016.7 hPa | - | - | - | - |
| 1778184885 | 13.89° C | 77% | 1016.6 hPa | - | - | - | - |
| 1778183985 | 13.89° C | 77% | 1016.4 hPa | - | - | - | - |
| 1778183084 | 13.89° C | 76% | 1016.4 hPa | - | - | - | - |
| 1778182183 | 13.89° C | 75% | 1016.3 hPa | - | - | - | - |
| 1778181282 | 14.44° C | 75% | 1016.1 hPa | - | - | - | - |
| 1778180381 | 14.44° C | 74% | 1015.8 hPa | - | - | - | - |
| 1778179480 | 14.44° C | 73% | 1015.6 hPa | - | - | - | - |
| 1778178580 | 14.44° C | 72% | 1015.5 hPa | - | - | - | - |
| 1778177679 | 15° C | 70% | 1015.2 hPa | - | - | - | - |
| 1778176778 | 16.11° C | 66% | 1015 hPa | - | - | - | - |
| 1778175877 | 16.67° C | 63% | 1014.8 hPa | - | - | - | - |
| 1778174976 | 17.78° C | 56% | 1014.4 hPa | - | - | - | - |
| 1778174075 | 17.78° C | 55% | 1014.2 hPa | - | - | - | - |
| 1778173175 | 18.33° C | 54% | 1014 hPa | - | - | - | - |
| 1778172274 | 18.33° C | 53% | 1013.8 hPa | - | - | - | - |
| 1778171373 | 18.89° C | 50% | 1013.9 hPa | - | - | - | - |
| 1778170472 | 19.44° C | 50% | 1013.7 hPa | - | - | - | - |
* Rain since midnight (hover to see other rain measurements)
** Current wind speed in m/s (hover to see current wind gust speed)